sensor_id;sensor_type;location;lat;lon;timestamp;temperature;humidity
18880;DHT22;9572;52.378;13.404;2022-12-05T00:00:09;3.20;99.90
18880;DHT22;9572;52.378;13.404;2022-12-05T00:02:38;3.20;99.90
18880;DHT22;9572;52.378;13.404;2022-12-05T00:05:05;3.20;99.90
18880;DHT22;9572;52.378;13.404;2022-12-05T00:07:32;3.20;99.90
18880;DHT22;9572;52.378;13.404;2022-12-05T00:09:59;3.20;99.90
18880;DHT22;9572;52.378;13.404;2022-12-05T00:12:26;3.20;99.90
18880;DHT22;9572;52.378;13.404;2022-12-05T00:14:53;3.10;99.90
18880;DHT22;9572;52.378;13.404;2022-12-05T00:17:20;3.10;99.90
18880;DHT22;9572;52.378;13.404;2022-12-05T00:19:48;3.20;99.90
18880;DHT22;9572;52.378;13.404;2022-12-05T00:22:15;3.20;99.90
18880;DHT22;9572;52.378;13.404;2022-12-05T00:24:42;3.10;99.90
18880;DHT22;9572;52.378;13.404;2022-12-05T00:27:09;3.20;99.90
18880;DHT22;9572;52.378;13.404;2022-12-05T00:29:36;3.20;99.90
18880;DHT22;9572;52.378;13.404;2022-12-05T00:32:03;3.20;99.90
18880;DHT22;9572;52.378;13.404;2022-12-05T00:34:30;3.10;99.90
18880;DHT22;9572;52.378;13.404;2022-12-05T00:36:58;3.20;99.90
18880;DHT22;9572;52.378;13.404;2022-12-05T00:39:25;3.10;99.90
18880;DHT22;9572;52.378;13.404;2022-12-05T00:41:52;3.20;99.90
18880;DHT22;9572;52.378;13.404;2022-12-05T00:44:19;3.20;99.90
18880;DHT22;9572;52.378;13.404;2022-12-05T00:46:46;3.20;99.90
18880;DHT22;9572;52.378;13.404;2022-12-05T00:49:12;3.20;99.90
18880;DHT22;9572;52.378;13.404;2022-12-05T00:51:41;3.20;99.90
18880;DHT22;9572;52.378;13.404;2022-12-05T00:54:11;3.20;99.90
18880;DHT22;9572;52.378;13.404;2022-12-05T00:56:38;3.20;99.90
18880;DHT22;9572;52.378;13.404;2022-12-05T00:59:06;3.20;99.90
18880;DHT22;9572;52.378;13.404;2022-12-05T01:01:35;3.10;99.90
18880;DHT22;9572;52.378;13.404;2022-12-05T01:04:04;3.20;99.90
18880;DHT22;9572;52.378;13.404;2022-12-05T01:06:31;3.10;99.90
18880;DHT22;9572;52.378;13.404;2022-12-05T01:08:58;3.20;99.90
18880;DHT22;9572;52.378;13.404;2022-12-05T01:11:27;3.20;99.90
18880;DHT22;9572;52.378;13.404;2022-12-05T01:13:54;3.20;99.90
18880;DHT22;9572;52.378;13.404;2022-12-05T01:16:24;3.20;99.90
18880;DHT22;9572;52.378;13.404;2022-12-05T01:18:51;3.20;99.90
18880;DHT22;9572;52.378;13.404;2022-12-05T01:21:19;3.20;99.90
18880;DHT22;9572;52.378;13.404;2022-12-05T01:23:46;3.20;99.90
18880;DHT22;9572;52.378;13.404;2022-12-05T01:26:15;3.20;99.90
18880;DHT22;9572;52.378;13.404;2022-12-05T01:28:44;3.20;99.90
18880;DHT22;9572;52.378;13.404;2022-12-05T01:31:16;3.20;99.90
18880;DHT22;9572;52.378;13.404;2022-12-05T01:33:44;3.20;99.90
18880;DHT22;9572;52.378;13.404;2022-12-05T01:36:11;3.30;99.90
18880;DHT22;9572;52.378;13.404;2022-12-05T01:38:38;3.30;99.90
18880;DHT22;9572;52.378;13.404;2022-12-05T01:41:08;3.20;99.90
18880;DHT22;9572;52.378;13.404;2022-12-05T01:43:58;3.20;99.90
18880;DHT22;9572;52.378;13.404;2022-12-05T01:46:26;3.20;99.90
18880;DHT22;9572;52.378;13.404;2022-12-05T01:49:01;3.30;99.90
18880;DHT22;9572;52.378;13.404;2022-12-05T01:51:29;3.30;99.90
18880;DHT22;9572;52.378;13.404;2022-12-05T01:53:58;3.20;99.90
18880;DHT22;9572;52.378;13.404;2022-12-05T01:56:25;3.20;99.90
18880;DHT22;9572;52.378;13.404;2022-12-05T01:58:53;3.30;99.90
18880;DHT22;9572;52.378;13.404;2022-12-05T02:01:22;3.30;99.90
18880;DHT22;9572;52.378;13.404;2022-12-05T02:03:51;3.30;99.90
18880;DHT22;9572;52.378;13.404;2022-12-05T02:06:22;3.30;99.90
18880;DHT22;9572;52.378;13.404;2022-12-05T02:08:50;3.40;99.90
18880;DHT22;9572;52.378;13.404;2022-12-05T02:11:17;3.30;99.90
18880;DHT22;9572;52.378;13.404;2022-12-05T02:14:00;3.30;99.90
18880;DHT22;9572;52.378;13.404;2022-12-05T02:16:41;3.30;99.90
18880;DHT22;9572;52.378;13.404;2022-12-05T02:19:35;3.40;99.90
18880;DHT22;9572;52.378;13.404;2022-12-05T02:22:20;3.30;99.90
18880;DHT22;9572;52.378;13.404;2022-12-05T02:25:10;3.30;99.90
18880;DHT22;9572;52.378;13.404;2022-12-05T02:27:54;3.30;99.90
18880;DHT22;9572;52.378;13.404;2022-12-05T02:30:31;3.40;99.90
18880;DHT22;9572;52.378;13.404;2022-12-05T02:33:07;3.30;99.90
18880;DHT22;9572;52.378;13.404;2022-12-05T02:35:48;3.30;99.90
18880;DHT22;9572;52.378;13.404;2022-12-05T02:38:23;3.30;99.90
18880;DHT22;9572;52.378;13.404;2022-12-05T02:40:59;3.30;99.90
18880;DHT22;9572;52.378;13.404;2022-12-05T02:43:31;3.30;99.90
18880;DHT22;9572;52.378;13.404;2022-12-05T02:46:04;3.30;99.90
18880;DHT22;9572;52.378;13.404;2022-12-05T02:48:33;3.40;99.90
18880;DHT22;9572;52.378;13.404;2022-12-05T02:51:01;3.40;99.90
18880;DHT22;9572;52.378;13.404;2022-12-05T02:53:30;3.30;99.90
18880;DHT22;9572;52.378;13.404;2022-12-05T02:55:57;3.40;99.90
18880;DHT22;9572;52.378;13.404;2022-12-05T02:58:30;3.40;99.90
18880;DHT22;9572;52.378;13.404;2022-12-05T03:00:58;3.40;99.90
18880;DHT22;9572;52.378;13.404;2022-12-05T03:03:27;3.40;99.90
18880;DHT22;9572;52.378;13.404;2022-12-05T03:06:00;3.50;99.90
18880;DHT22;9572;52.378;13.404;2022-12-05T03:08:30;3.40;99.90
18880;DHT22;9572;52.378;13.404;2022-12-05T03:10:58;3.50;99.90
18880;DHT22;9572;52.378;13.404;2022-12-05T03:13:31;3.50;99.90
18880;DHT22;9572;52.378;13.404;2022-12-05T03:16:02;3.40;99.90
18880;DHT22;9572;52.378;13.404;2022-12-05T03:18:36;3.40;99.90
18880;DHT22;9572;52.378;13.404;2022-12-05T03:21:10;3.30;99.90
18880;DHT22;9572;52.378;13.404;2022-12-05T03:23:43;3.30;99.90
18880;DHT22;9572;52.378;13.404;2022-12-05T03:26:17;3.30;99.90
18880;DHT22;9572;52.378;13.404;2022-12-05T03:28:54;3.30;99.90
18880;DHT22;9572;52.378;13.404;2022-12-05T03:31:29;3.50;99.90
18880;DHT22;9572;52.378;13.404;2022-12-05T03:34:00;3.50;99.90
18880;DHT22;9572;52.378;13.404;2022-12-05T03:36:36;3.50;99.90
18880;DHT22;9572;52.378;13.404;2022-12-05T03:39:07;3.50;99.90
18880;DHT22;9572;52.378;13.404;2022-12-05T03:41:40;3.50;99.90
18880;DHT22;9572;52.378;13.404;2022-12-05T03:44:10;3.50;99.90
18880;DHT22;9572;52.378;13.404;2022-12-05T03:46:40;3.50;99.90
18880;DHT22;9572;52.378;13.404;2022-12-05T03:49:16;3.50;99.90
18880;DHT22;9572;52.378;13.404;2022-12-05T03:51:50;3.50;99.90
18880;DHT22;9572;52.378;13.404;2022-12-05T03:54:22;3.50;99.90
18880;DHT22;9572;52.378;13.404;2022-12-05T03:56:55;3.50;99.90
18880;DHT22;9572;52.378;13.404;2022-12-05T03:59:29;3.40;99.90
18880;DHT22;9572;52.378;13.404;2022-12-05T04:02:00;3.40;99.90
18880;DHT22;9572;52.378;13.404;2022-12-05T04:04:35;3.40;99.90
18880;DHT22;9572;52.378;13.404;2022-12-05T04:07:05;3.50;99.90
18880;DHT22;9572;52.378;13.404;2022-12-05T04:09:36;3.50;99.90
18880;DHT22;9572;52.378;13.404;2022-12-05T04:12:08;3.50;99.90
18880;DHT22;9572;52.378;13.404;2022-12-05T04:14:40;3.50;99.90
18880;DHT22;9572;52.378;13.404;2022-12-05T04:17:11;3.60;99.90
18880;DHT22;9572;52.378;13.404;2022-12-05T04:19:47;3.60;99.90
18880;DHT22;9572;52.378;13.404;2022-12-05T04:22:35;3.50;99.90
18880;DHT22;9572;52.378;13.404;2022-12-05T04:25:03;3.50;99.90
18880;DHT22;9572;52.378;13.404;2022-12-05T04:27:53;3.50;99.90
18880;DHT22;9572;52.378;13.404;2022-12-05T04:30:24;3.40;99.90
18880;DHT22;9572;52.378;13.404;2022-12-05T04:32:59;3.50;99.90
18880;DHT22;9572;52.378;13.404;2022-12-05T04:35:31;3.40;99.90
18880;DHT22;9572;52.378;13.404;2022-12-05T04:38:04;3.50;99.90
18880;DHT22;9572;52.378;13.404;2022-12-05T04:40:36;3.50;99.90
18880;DHT22;9572;52.378;13.404;2022-12-05T04:43:04;3.50;99.90
18880;DHT22;9572;52.378;13.404;2022-12-05T04:45:32;3.40;99.90
18880;DHT22;9572;52.378;13.404;2022-12-05T04:48:01;3.40;99.90
18880;DHT22;9572;52.378;13.404;2022-12-05T04:50:32;3.40;99.90
18880;DHT22;9572;52.378;13.404;2022-12-05T04:53:01;3.40;99.90
18880;DHT22;9572;52.378;13.404;2022-12-05T04:55:31;3.40;99.90
18880;DHT22;9572;52.378;13.404;2022-12-05T04:58:05;3.40;99.90
18880;DHT22;9572;52.378;13.404;2022-12-05T05:00:37;3.40;99.90
18880;DHT22;9572;52.378;13.404;2022-12-05T05:03:09;3.40;99.90
18880;DHT22;9572;52.378;13.404;2022-12-05T05:05:41;3.40;99.90
18880;DHT22;9572;52.378;13.404;2022-12-05T05:08:16;3.50;99.90
18880;DHT22;9572;52.378;13.404;2022-12-05T05:10:51;3.50;99.90
18880;DHT22;9572;52.378;13.404;2022-12-05T05:13:20;3.50;99.90
18880;DHT22;9572;52.378;13.404;2022-12-05T05:15:47;3.40;99.90
18880;DHT22;9572;52.378;13.404;2022-12-05T05:18:14;3.40;99.90
18880;DHT22;9572;52.378;13.404;2022-12-05T05:20:42;3.40;99.90
18880;DHT22;9572;52.378;13.404;2022-12-05T05:23:09;3.50;99.90
18880;DHT22;9572;52.378;13.404;2022-12-05T05:25:36;3.50;99.90
18880;DHT22;9572;52.378;13.404;2022-12-05T05:28:03;3.50;99.90
18880;DHT22;9572;52.378;13.404;2022-12-05T05:30:30;3.40;99.90
18880;DHT22;9572;52.378;13.404;2022-12-05T05:32:58;3.50;99.90
18880;DHT22;9572;52.378;13.404;2022-12-05T05:35:25;3.50;99.90
18880;DHT22;9572;52.378;13.404;2022-12-05T05:37:53;3.50;99.90
18880;DHT22;9572;52.378;13.404;2022-12-05T05:40:20;3.60;99.90
18880;DHT22;9572;52.378;13.404;2022-12-05T05:42:48;3.60;99.90
18880;DHT22;9572;52.378;13.404;2022-12-05T05:45:16;3.50;99.90
18880;DHT22;9572;52.378;13.404;2022-12-05T05:47:44;3.40;99.90
18880;DHT22;9572;52.378;13.404;2022-12-05T05:50:14;3.50;99.90
18880;DHT22;9572;52.378;13.404;2022-12-05T05:52:41;3.50;99.90
18880;DHT22;9572;52.378;13.404;2022-12-05T05:55:10;3.60;99.90
18880;DHT22;9572;52.378;13.404;2022-12-05T05:57:36;3.50;99.90
18880;DHT22;9572;52.378;13.404;2022-12-05T06:00:05;3.50;99.90
18880;DHT22;9572;52.378;13.404;2022-12-05T06:02:33;3.40;99.90
18880;DHT22;9572;52.378;13.404;2022-12-05T06:05:01;3.50;99.90
18880;DHT22;9572;52.378;13.404;2022-12-05T06:07:28;3.50;99.90
18880;DHT22;9572;52.378;13.404;2022-12-05T06:09:55;3.60;99.90
18880;DHT22;9572;52.378;13.404;2022-12-05T06:12:24;3.60;99.90
18880;DHT22;9572;52.378;13.404;2022-12-05T06:14:51;3.60;99.90
18880;DHT22;9572;52.378;13.404;2022-12-05T06:17:18;3.70;99.90
18880;DHT22;9572;52.378;13.404;2022-12-05T06:19:46;3.70;99.90
18880;DHT22;9572;52.378;13.404;2022-12-05T06:22:13;3.60;99.90
18880;DHT22;9572;52.378;13.404;2022-12-05T06:24:40;3.50;99.90
18880;DHT22;9572;52.378;13.404;2022-12-05T06:27:07;3.60;99.90
18880;DHT22;9572;52.378;13.404;2022-12-05T06:29:35;3.60;99.90
18880;DHT22;9572;52.378;13.404;2022-12-05T06:32:02;3.70;99.90
18880;DHT22;9572;52.378;13.404;2022-12-05T06:34:29;3.70;99.90
18880;DHT22;9572;52.378;13.404;2022-12-05T06:36:57;3.50;99.90
18880;DHT22;9572;52.378;13.404;2022-12-05T06:39:24;3.50;99.90
18880;DHT22;9572;52.378;13.404;2022-12-05T06:41:51;3.50;99.90
18880;DHT22;9572;52.378;13.404;2022-12-05T06:44:18;3.50;99.90
18880;DHT22;9572;52.378;13.404;2022-12-05T06:46:47;3.50;99.90
18880;DHT22;9572;52.378;13.404;2022-12-05T06:49:14;3.60;99.90
18880;DHT22;9572;52.378;13.404;2022-12-05T06:51:41;3.60;99.90
18880;DHT22;9572;52.378;13.404;2022-12-05T06:54:09;3.50;99.90
18880;DHT22;9572;52.378;13.404;2022-12-05T06:56:36;3.50;99.90
18880;DHT22;9572;52.378;13.404;2022-12-05T06:59:03;3.50;99.90
18880;DHT22;9572;52.378;13.404;2022-12-05T07:01:30;3.40;99.90
18880;DHT22;9572;52.378;13.404;2022-12-05T07:04:10;3.40;99.90
18880;DHT22;9572;52.378;13.404;2022-12-05T07:06:38;3.50;99.90
18880;DHT22;9572;52.378;13.404;2022-12-05T07:09:05;3.60;99.90
18880;DHT22;9572;52.378;13.404;2022-12-05T07:11:32;3.50;99.90
18880;DHT22;9572;52.378;13.404;2022-12-05T07:13:59;3.60;99.90
18880;DHT22;9572;52.378;13.404;2022-12-05T07:16:26;3.70;99.90
18880;DHT22;9572;52.378;13.404;2022-12-05T07:18:53;3.60;99.90
18880;DHT22;9572;52.378;13.404;2022-12-05T07:21:22;3.60;99.90
18880;DHT22;9572;52.378;13.404;2022-12-05T07:23:50;3.60;99.90
18880;DHT22;9572;52.378;13.404;2022-12-05T07:26:19;3.60;99.90
18880;DHT22;9572;52.378;13.404;2022-12-05T07:28:46;3.70;99.90
18880;DHT22;9572;52.378;13.404;2022-12-05T07:31:16;3.80;99.90
18880;DHT22;9572;52.378;13.404;2022-12-05T07:33:43;3.70;99.90
18880;DHT22;9572;52.378;13.404;2022-12-05T07:36:13;3.70;99.90
18880;DHT22;9572;52.378;13.404;2022-12-05T07:38:42;3.60;99.90
18880;DHT22;9572;52.378;13.404;2022-12-05T07:41:10;3.70;99.90
18880;DHT22;9572;52.378;13.404;2022-12-05T07:43:39;3.60;99.90
18880;DHT22;9572;52.378;13.404;2022-12-05T07:46:08;3.70;99.90
18880;DHT22;9572;52.378;13.404;2022-12-05T07:48:36;3.60;99.90
18880;DHT22;9572;52.378;13.404;2022-12-05T07:51:04;3.60;99.90
18880;DHT22;9572;52.378;13.404;2022-12-05T07:53:32;3.60;99.90
18880;DHT22;9572;52.378;13.404;2022-12-05T07:56:02;3.60;99.90
18880;DHT22;9572;52.378;13.404;2022-12-05T07:58:30;3.70;99.90
18880;DHT22;9572;52.378;13.404;2022-12-05T08:01:05;3.70;99.90
18880;DHT22;9572;52.378;13.404;2022-12-05T08:03:32;3.70;99.90
18880;DHT22;9572;52.378;13.404;2022-12-05T08:06:01;3.70;99.90
18880;DHT22;9572;52.378;13.404;2022-12-05T08:08:28;3.60;99.90
18880;DHT22;9572;52.378;13.404;2022-12-05T08:10:55;3.60;99.90
18880;DHT22;9572;52.378;13.404;2022-12-05T08:13:23;3.60;99.90
18880;DHT22;9572;52.378;13.404;2022-12-05T08:15:50;3.70;99.90
18880;DHT22;9572;52.378;13.404;2022-12-05T08:18:17;3.70;99.90
18880;DHT22;9572;52.378;13.404;2022-12-05T08:20:44;3.60;99.90
18880;DHT22;9572;52.378;13.404;2022-12-05T08:23:11;3.70;99.90
18880;DHT22;9572;52.378;13.404;2022-12-05T08:25:38;3.60;99.90
18880;DHT22;9572;52.378;13.404;2022-12-05T08:28:05;3.70;99.90
18880;DHT22;9572;52.378;13.404;2022-12-05T08:30:34;3.70;99.90
18880;DHT22;9572;52.378;13.404;2022-12-05T08:33:00;3.80;99.90
18880;DHT22;9572;52.378;13.404;2022-12-05T08:35:28;3.80;99.90
18880;DHT22;9572;52.378;13.404;2022-12-05T08:37:55;3.70;99.90
18880;DHT22;9572;52.378;13.404;2022-12-05T08:40:21;3.70;99.90
18880;DHT22;9572;52.378;13.404;2022-12-05T08:42:48;3.60;99.90
18880;DHT22;9572;52.378;13.404;2022-12-05T08:45:15;3.70;99.90
18880;DHT22;9572;52.378;13.404;2022-12-05T08:47:44;3.70;99.90
18880;DHT22;9572;52.378;13.404;2022-12-05T08:50:10;3.80;99.90
18880;DHT22;9572;52.378;13.404;2022-12-05T08:52:37;3.70;99.90
18880;DHT22;9572;52.378;13.404;2022-12-05T08:55:05;3.80;99.90
18880;DHT22;9572;52.378;13.404;2022-12-05T08:57:32;3.80;99.90
18880;DHT22;9572;52.378;13.404;2022-12-05T08:59:59;3.70;99.90
18880;DHT22;9572;52.378;13.404;2022-12-05T09:02:26;3.70;99.90
18880;DHT22;9572;52.378;13.404;2022-12-05T09:04:54;3.60;99.90
18880;DHT22;9572;52.378;13.404;2022-12-05T09:07:21;3.60;99.90
18880;DHT22;9572;52.378;13.404;2022-12-05T09:09:48;3.50;99.90
18880;DHT22;9572;52.378;13.404;2022-12-05T09:12:15;3.50;99.90
18880;DHT22;9572;52.378;13.404;2022-12-05T09:14:42;3.60;99.90
18880;DHT22;9572;52.378;13.404;2022-12-05T09:17:08;3.60;99.90
18880;DHT22;9572;52.378;13.404;2022-12-05T09:19:35;3.60;99.90
18880;DHT22;9572;52.378;13.404;2022-12-05T09:22:06;3.60;99.90
18880;DHT22;9572;52.378;13.404;2022-12-05T09:24:33;3.60;99.90
18880;DHT22;9572;52.378;13.404;2022-12-05T09:27:00;3.70;99.90
18880;DHT22;9572;52.378;13.404;2022-12-05T09:29:27;3.70;99.90
18880;DHT22;9572;52.378;13.404;2022-12-05T09:31:57;3.70;99.90
18880;DHT22;9572;52.378;13.404;2022-12-05T09:34:23;3.60;99.90
18880;DHT22;9572;52.378;13.404;2022-12-05T09:36:51;3.60;99.90
18880;DHT22;9572;52.378;13.404;2022-12-05T09:39:19;3.60;99.90
18880;DHT22;9572;52.378;13.404;2022-12-05T09:41:59;3.60;99.90
18880;DHT22;9572;52.378;13.404;2022-12-05T09:44:44;3.60;99.90
18880;DHT22;9572;52.378;13.404;2022-12-05T09:47:24;3.60;99.90
18880;DHT22;9572;52.378;13.404;2022-12-05T09:49:56;3.60;99.90
18880;DHT22;9572;52.378;13.404;2022-12-05T09:52:26;3.60;99.90
18880;DHT22;9572;52.378;13.404;2022-12-05T09:54:55;3.70;99.90
18880;DHT22;9572;52.378;13.404;2022-12-05T09:57:28;3.70;99.90
18880;DHT22;9572;52.378;13.404;2022-12-05T09:59:57;3.70;99.90
18880;DHT22;9572;52.378;13.404;2022-12-05T10:02:31;3.70;99.90
18880;DHT22;9572;52.378;13.404;2022-12-05T10:05:04;3.60;99.90
18880;DHT22;9572;52.378;13.404;2022-12-05T10:07:35;3.70;99.90
18880;DHT22;9572;52.378;13.404;2022-12-05T10:10:23;3.60;99.90
18880;DHT22;9572;52.378;13.404;2022-12-05T10:13:06;3.60;99.90
18880;DHT22;9572;52.378;13.404;2022-12-05T10:15:37;3.60;99.90
18880;DHT22;9572;52.378;13.404;2022-12-05T10:18:11;3.70;99.90
18880;DHT22;9572;52.378;13.404;2022-12-05T10:20:44;3.70;99.90
18880;DHT22;9572;52.378;13.404;2022-12-05T10:23:17;3.70;99.90
18880;DHT22;9572;52.378;13.404;2022-12-05T10:25:51;3.70;99.90
18880;DHT22;9572;52.378;13.404;2022-12-05T10:28:27;3.70;99.90
18880;DHT22;9572;52.378;13.404;2022-12-05T10:30:59;3.70;99.90
18880;DHT22;9572;52.378;13.404;2022-12-05T10:33:32;3.80;99.90
18880;DHT22;9572;52.378;13.404;2022-12-05T10:36:05;3.80;99.90
18880;DHT22;9572;52.378;13.404;2022-12-05T10:38:35;3.80;99.90
18880;DHT22;9572;52.378;13.404;2022-12-05T10:41:07;3.80;99.90
18880;DHT22;9572;52.378;13.404;2022-12-05T10:43:35;3.80;99.90
18880;DHT22;9572;52.378;13.404;2022-12-05T10:46:03;3.80;99.90
18880;DHT22;9572;52.378;13.404;2022-12-05T10:48:34;3.80;99.90
18880;DHT22;9572;52.378;13.404;2022-12-05T10:51:02;3.90;99.90
18880;DHT22;9572;52.378;13.404;2022-12-05T10:53:37;3.90;99.90
18880;DHT22;9572;52.378;13.404;2022-12-05T10:56:37;3.80;99.90
18880;DHT22;9572;52.378;13.404;2022-12-05T10:59:05;3.90;99.90
18880;DHT22;9572;52.378;13.404;2022-12-05T11:01:33;3.80;99.90
18880;DHT22;9572;52.378;13.404;2022-12-05T11:04:07;3.80;99.90
18880;DHT22;9572;52.378;13.404;2022-12-05T11:06:34;3.80;99.90
18880;DHT22;9572;52.378;13.404;2022-12-05T11:09:04;3.80;99.90
18880;DHT22;9572;52.378;13.404;2022-12-05T11:11:33;3.80;99.90
18880;DHT22;9572;52.378;13.404;2022-12-05T11:14:02;3.90;99.90
18880;DHT22;9572;52.378;13.404;2022-12-05T11:16:32;3.90;99.90
18880;DHT22;9572;52.378;13.404;2022-12-05T11:19:17;4.00;99.90
18880;DHT22;9572;52.378;13.404;2022-12-05T11:21:45;4.00;99.90
18880;DHT22;9572;52.378;13.404;2022-12-05T11:24:21;4.00;99.90
18880;DHT22;9572;52.378;13.404;2022-12-05T11:26:49;4.10;99.90
18880;DHT22;9572;52.378;13.404;2022-12-05T11:29:31;4.20;99.90
18880;DHT22;9572;52.378;13.404;2022-12-05T11:31:58;4.10;99.90
18880;DHT22;9572;52.378;13.404;2022-12-05T11:34:30;4.10;99.90
18880;DHT22;9572;52.378;13.404;2022-12-05T11:37:04;4.20;99.90
18880;DHT22;9572;52.378;13.404;2022-12-05T11:39:32;4.20;99.90
18880;DHT22;9572;52.378;13.404;2022-12-05T11:45:32;4.20;99.90
18880;DHT22;9572;52.378;13.404;2022-12-05T11:48:14;4.20;99.90
18880;DHT22;9572;52.378;13.404;2022-12-05T11:50:51;4.20;99.90
18880;DHT22;9572;52.378;13.404;2022-12-05T11:53:49;4.20;99.90
18880;DHT22;9572;52.378;13.404;2022-12-05T11:56:29;4.10;99.90
18880;DHT22;9572;52.378;13.404;2022-12-05T11:59:26;4.20;99.90
18880;DHT22;9572;52.378;13.404;2022-12-05T12:02:07;4.10;99.90
18880;DHT22;9572;52.378;13.404;2022-12-05T12:04:50;4.10;99.90
18880;DHT22;9572;52.378;13.404;2022-12-05T12:07:26;4.10;99.90
18880;DHT22;9572;52.378;13.404;2022-12-05T12:10:05;4.10;99.90
18880;DHT22;9572;52.378;13.404;2022-12-05T12:12:40;4.10;99.90
18880;DHT22;9572;52.378;13.404;2022-12-05T12:15:26;4.10;99.90
18880;DHT22;9572;52.378;13.404;2022-12-05T12:18:02;4.20;99.90
18880;DHT22;9572;52.378;13.404;2022-12-05T12:20:44;4.10;99.90
18880;DHT22;9572;52.378;13.404;2022-12-05T12:23:29;4.10;99.90
18880;DHT22;9572;52.378;13.404;2022-12-05T12:26:08;4.00;99.90
18880;DHT22;9572;52.378;13.404;2022-12-05T12:28:41;4.10;99.90
18880;DHT22;9572;52.378;13.404;2022-12-05T12:34:13;4.10;99.90
18880;DHT22;9572;52.378;13.404;2022-12-05T12:36:50;4.10;99.90
18880;DHT22;9572;52.378;13.404;2022-12-05T12:39:26;4.20;99.90
18880;DHT22;9572;52.378;13.404;2022-12-05T12:42:19;4.20;99.90
18880;DHT22;9572;52.378;13.404;2022-12-05T12:44:58;4.20;99.90
18880;DHT22;9572;52.378;13.404;2022-12-05T12:47:36;4.20;99.90
18880;DHT22;9572;52.378;13.404;2022-12-05T12:50:13;4.20;99.90
18880;DHT22;9572;52.378;13.404;2022-12-05T12:53:06;4.20;99.90
18880;DHT22;9572;52.378;13.404;2022-12-05T12:55:43;4.20;99.90
18880;DHT22;9572;52.378;13.404;2022-12-05T12:58:31;4.30;99.90
18880;DHT22;9572;52.378;13.404;2022-12-05T13:01:10;4.30;99.90
18880;DHT22;9572;52.378;13.404;2022-12-05T13:03:48;4.30;99.90
18880;DHT22;9572;52.378;13.404;2022-12-05T13:06:23;4.30;99.90
18880;DHT22;9572;52.378;13.404;2022-12-05T13:08:55;4.30;99.90
18880;DHT22;9572;52.378;13.404;2022-12-05T13:11:23;4.30;99.90
18880;DHT22;9572;52.378;13.404;2022-12-05T13:13:52;4.40;99.90
18880;DHT22;9572;52.378;13.404;2022-12-05T13:16:23;4.40;99.90
18880;DHT22;9572;52.378;13.404;2022-12-05T13:18:53;4.40;99.90
18880;DHT22;9572;52.378;13.404;2022-12-05T13:21:21;4.30;99.90
18880;DHT22;9572;52.378;13.404;2022-12-05T13:23:49;4.30;99.90
18880;DHT22;9572;52.378;13.404;2022-12-05T13:26:17;4.30;99.90
18880;DHT22;9572;52.378;13.404;2022-12-05T13:28:50;4.30;99.90
18880;DHT22;9572;52.378;13.404;2022-12-05T13:31:32;4.30;99.90
18880;DHT22;9572;52.378;13.404;2022-12-05T13:34:01;4.30;99.90
18880;DHT22;9572;52.378;13.404;2022-12-05T13:36:37;4.40;99.90
18880;DHT22;9572;52.378;13.404;2022-12-05T13:39:22;4.40;99.90
18880;DHT22;9572;52.378;13.404;2022-12-05T13:42:19;4.40;99.90
18880;DHT22;9572;52.378;13.404;2022-12-05T13:44:51;4.40;99.90
18880;DHT22;9572;52.378;13.404;2022-12-05T13:47:26;4.40;99.90
18880;DHT22;9572;52.378;13.404;2022-12-05T13:50:02;4.40;99.90
18880;DHT22;9572;52.378;13.404;2022-12-05T13:52:40;4.40;99.90
18880;DHT22;9572;52.378;13.404;2022-12-05T13:55:21;4.40;99.90
18880;DHT22;9572;52.378;13.404;2022-12-05T13:57:52;4.40;99.90
18880;DHT22;9572;52.378;13.404;2022-12-05T14:00:29;4.40;99.90
18880;DHT22;9572;52.378;13.404;2022-12-05T14:03:00;4.40;99.90
18880;DHT22;9572;52.378;13.404;2022-12-05T14:05:40;4.40;99.90
18880;DHT22;9572;52.378;13.404;2022-12-05T14:11:13;4.50;99.90
18880;DHT22;9572;52.378;13.404;2022-12-05T14:13:42;4.50;99.90
18880;DHT22;9572;52.378;13.404;2022-12-05T14:22:51;4.60;99.90
18880;DHT22;9572;52.378;13.404;2022-12-05T14:25:39;4.50;99.90
18880;DHT22;9572;52.378;13.404;2022-12-05T14:28:17;4.50;99.90
18880;DHT22;9572;52.378;13.404;2022-12-05T14:31:00;4.50;99.90
18880;DHT22;9572;52.378;13.404;2022-12-05T14:33:31;4.50;99.90
18880;DHT22;9572;52.378;13.404;2022-12-05T14:36:04;4.60;99.90
18880;DHT22;9572;52.378;13.404;2022-12-05T14:38:35;4.60;99.90
18880;DHT22;9572;52.378;13.404;2022-12-05T14:41:14;4.60;99.90
18880;DHT22;9572;52.378;13.404;2022-12-05T14:43:42;4.60;99.90
18880;DHT22;9572;52.378;13.404;2022-12-05T14:46:17;4.50;99.90
18880;DHT22;9572;52.378;13.404;2022-12-05T14:48:48;4.60;99.90
18880;DHT22;9572;52.378;13.404;2022-12-05T14:51:43;4.60;99.90
18880;DHT22;9572;52.378;13.404;2022-12-05T14:54:14;4.60;99.90
18880;DHT22;9572;52.378;13.404;2022-12-05T14:56:43;4.60;99.90
18880;DHT22;9572;52.378;13.404;2022-12-05T14:59:25;4.70;99.90
18880;DHT22;9572;52.378;13.404;2022-12-05T15:01:55;4.60;99.90
18880;DHT22;9572;52.378;13.404;2022-12-05T15:04:30;4.60;99.90
18880;DHT22;9572;52.378;13.404;2022-12-05T15:07:00;4.60;99.90
18880;DHT22;9572;52.378;13.404;2022-12-05T15:09:37;4.60;99.90
18880;DHT22;9572;52.378;13.404;2022-12-05T15:12:12;4.60;99.90
18880;DHT22;9572;52.378;13.404;2022-12-05T15:14:51;4.60;99.90
18880;DHT22;9572;52.378;13.404;2022-12-05T15:17:23;4.70;99.90
18880;DHT22;9572;52.378;13.404;2022-12-05T15:19:55;4.70;99.90
18880;DHT22;9572;52.378;13.404;2022-12-05T15:22:24;4.60;99.90
18880;DHT22;9572;52.378;13.404;2022-12-05T15:24:53;4.70;99.90
18880;DHT22;9572;52.378;13.404;2022-12-05T15:27:20;4.70;99.90
18880;DHT22;9572;52.378;13.404;2022-12-05T15:29:47;4.70;99.90
18880;DHT22;9572;52.378;13.404;2022-12-05T15:32:22;4.70;99.90
18880;DHT22;9572;52.378;13.404;2022-12-05T15:34:53;4.70;99.90
18880;DHT22;9572;52.378;13.404;2022-12-05T15:37:24;4.60;99.90
18880;DHT22;9572;52.378;13.404;2022-12-05T15:39:57;4.70;99.90
18880;DHT22;9572;52.378;13.404;2022-12-05T15:42:26;4.70;99.90
18880;DHT22;9572;52.378;13.404;2022-12-05T15:45:11;4.80;99.90
18880;DHT22;9572;52.378;13.404;2022-12-05T15:47:41;4.70;99.90
18880;DHT22;9572;52.378;13.404;2022-12-05T15:50:12;4.70;99.90
18880;DHT22;9572;52.378;13.404;2022-12-05T15:52:41;4.70;99.90
18880;DHT22;9572;52.378;13.404;2022-12-05T15:55:13;4.80;99.90
18880;DHT22;9572;52.378;13.404;2022-12-05T15:57:43;4.80;99.90
18880;DHT22;9572;52.378;13.404;2022-12-05T16:00:14;4.80;99.90
18880;DHT22;9572;52.378;13.404;2022-12-05T16:02:45;4.80;99.90
18880;DHT22;9572;52.378;13.404;2022-12-05T16:05:21;4.80;99.90
18880;DHT22;9572;52.378;13.404;2022-12-05T16:07:50;4.80;99.90
18880;DHT22;9572;52.378;13.404;2022-12-05T16:10:20;4.80;99.90
18880;DHT22;9572;52.378;13.404;2022-12-05T16:12:48;4.80;99.90
18880;DHT22;9572;52.378;13.404;2022-12-05T16:15:20;4.80;99.90
18880;DHT22;9572;52.378;13.404;2022-12-05T16:17:52;4.70;99.90
18880;DHT22;9572;52.378;13.404;2022-12-05T16:20:28;4.70;99.90
18880;DHT22;9572;52.378;13.404;2022-12-05T16:22:59;4.80;99.90
18880;DHT22;9572;52.378;13.404;2022-12-05T16:25:30;4.80;99.90
18880;DHT22;9572;52.378;13.404;2022-12-05T16:28:13;4.80;99.90